sensor_id;sensor_type;location;lat;lon;timestamp;P1;durP1;ratioP1;P2;durP2;ratioP2
47155;SDS011;32908;52.344;16.858;2023-11-19T00:00:12;43.70;;;24.50;;
47155;SDS011;32908;52.344;16.858;2023-11-19T00:03:03;47.20;;;25.70;;
47155;SDS011;32908;52.344;16.858;2023-11-19T00:05:34;45.70;;;24.60;;
47155;SDS011;32908;52.344;16.858;2023-11-19T00:08:04;49.30;;;25.60;;
47155;SDS011;32908;52.344;16.858;2023-11-19T00:10:36;47.80;;;27.10;;
47155;SDS011;32908;52.344;16.858;2023-11-19T00:13:06;50.20;;;25.80;;
47155;SDS011;32908;52.344;16.858;2023-11-19T00:15:37;46.80;;;25.00;;
47155;SDS011;32908;52.344;16.858;2023-11-19T00:18:08;47.10;;;25.70;;
47155;SDS011;32908;52.344;16.858;2023-11-19T00:20:38;50.30;;;26.40;;
47155;SDS011;32908;52.344;16.858;2023-11-19T00:23:09;47.90;;;26.10;;
47155;SDS011;32908;52.344;16.858;2023-11-19T00:25:39;50.20;;;27.40;;
47155;SDS011;32908;52.344;16.858;2023-11-19T00:28:09;44.20;;;25.00;;
47155;SDS011;32908;52.344;16.858;2023-11-19T00:30:40;47.10;;;26.20;;
47155;SDS011;32908;52.344;16.858;2023-11-19T00:33:10;49.50;;;26.60;;
47155;SDS011;32908;52.344;16.858;2023-11-19T00:35:41;53.60;;;26.20;;
47155;SDS011;32908;52.344;16.858;2023-11-19T00:38:11;47.40;;;25.80;;
47155;SDS011;32908;52.344;16.858;2023-11-19T00:40:41;49.00;;;26.50;;
47155;SDS011;32908;52.344;16.858;2023-11-19T00:43:12;43.50;;;25.10;;
47155;SDS011;32908;52.344;16.858;2023-11-19T00:45:43;50.00;;;26.80;;
47155;SDS011;32908;52.344;16.858;2023-11-19T00:48:14;43.60;;;25.70;;
47155;SDS011;32908;52.344;16.858;2023-11-19T00:50:45;47.00;;;26.00;;
47155;SDS011;32908;52.344;16.858;2023-11-19T00:53:15;46.40;;;25.60;;
47155;SDS011;32908;52.344;16.858;2023-11-19T00:55:46;47.50;;;25.80;;
47155;SDS011;32908;52.344;16.858;2023-11-19T00:58:16;44.70;;;25.00;;
47155;SDS011;32908;52.344;16.858;2023-11-19T01:00:47;43.80;;;25.10;;
47155;SDS011;32908;52.344;16.858;2023-11-19T01:03:17;49.20;;;26.60;;
47155;SDS011;32908;52.344;16.858;2023-11-19T01:05:47;44.20;;;25.30;;
47155;SDS011;32908;52.344;16.858;2023-11-19T01:08:20;46.90;;;24.70;;
47155;SDS011;32908;52.344;16.858;2023-11-19T01:10:52;46.50;;;26.90;;
47155;SDS011;32908;52.344;16.858;2023-11-19T01:13:22;45.10;;;25.80;;
47155;SDS011;32908;52.344;16.858;2023-11-19T01:15:53;46.90;;;27.00;;
47155;SDS011;32908;52.344;16.858;2023-11-19T01:18:24;46.20;;;26.10;;
47155;SDS011;32908;52.344;16.858;2023-11-19T01:20:54;47.50;;;26.20;;
47155;SDS011;32908;52.344;16.858;2023-11-19T01:23:25;42.20;;;25.10;;
47155;SDS011;32908;52.344;16.858;2023-11-19T01:25:55;47.80;;;26.80;;
47155;SDS011;32908;52.344;16.858;2023-11-19T01:28:25;48.90;;;26.90;;
47155;SDS011;32908;52.344;16.858;2023-11-19T01:30:56;47.90;;;26.00;;
47155;SDS011;32908;52.344;16.858;2023-11-19T01:33:26;47.70;;;25.60;;
47155;SDS011;32908;52.344;16.858;2023-11-19T01:35:57;42.30;;;25.50;;
47155;SDS011;32908;52.344;16.858;2023-11-19T01:38:27;47.60;;;26.40;;
47155;SDS011;32908;52.344;16.858;2023-11-19T01:40:58;48.30;;;26.30;;
47155;SDS011;32908;52.344;16.858;2023-11-19T01:43:32;46.80;;;25.20;;
47155;SDS011;32908;52.344;16.858;2023-11-19T01:46:04;47.70;;;24.70;;
47155;SDS011;32908;52.344;16.858;2023-11-19T01:48:38;45.60;;;27.00;;
47155;SDS011;32908;52.344;16.858;2023-11-19T01:51:11;46.90;;;25.00;;
47155;SDS011;32908;52.344;16.858;2023-11-19T01:53:44;42.50;;;24.80;;
47155;SDS011;32908;52.344;16.858;2023-11-19T01:56:14;48.20;;;25.90;;
47155;SDS011;32908;52.344;16.858;2023-11-19T01:58:45;47.80;;;25.40;;
47155;SDS011;32908;52.344;16.858;2023-11-19T02:01:16;45.10;;;25.30;;
47155;SDS011;32908;52.344;16.858;2023-11-19T02:03:47;48.10;;;25.10;;
47155;SDS011;32908;52.344;16.858;2023-11-19T02:06:17;45.30;;;24.30;;
47155;SDS011;32908;52.344;16.858;2023-11-19T02:08:47;43.70;;;24.80;;
47155;SDS011;32908;52.344;16.858;2023-11-19T02:11:18;46.00;;;24.50;;
47155;SDS011;32908;52.344;16.858;2023-11-19T02:13:48;49.90;;;25.60;;
47155;SDS011;32908;52.344;16.858;2023-11-19T02:16:19;50.00;;;26.80;;
47155;SDS011;32908;52.344;16.858;2023-11-19T02:18:49;47.40;;;25.70;;
47155;SDS011;32908;52.344;16.858;2023-11-19T02:21:20;46.90;;;26.10;;
47155;SDS011;32908;52.344;16.858;2023-11-19T02:23:50;44.40;;;24.40;;
47155;SDS011;32908;52.344;16.858;2023-11-19T02:26:22;45.20;;;25.40;;
47155;SDS011;32908;52.344;16.858;2023-11-19T02:28:57;45.40;;;24.60;;
47155;SDS011;32908;52.344;16.858;2023-11-19T02:31:27;51.10;;;25.80;;
47155;SDS011;32908;52.344;16.858;2023-11-19T02:33:59;50.40;;;26.20;;
47155;SDS011;32908;52.344;16.858;2023-11-19T02:36:30;46.70;;;24.90;;
47155;SDS011;32908;52.344;16.858;2023-11-19T02:39:00;50.20;;;26.70;;
47155;SDS011;32908;52.344;16.858;2023-11-19T02:41:31;47.80;;;26.50;;
47155;SDS011;32908;52.344;16.858;2023-11-19T02:44:01;48.20;;;26.00;;
47155;SDS011;32908;52.344;16.858;2023-11-19T02:46:33;47.20;;;26.50;;
47155;SDS011;32908;52.344;16.858;2023-11-19T02:49:03;51.60;;;27.70;;
47155;SDS011;32908;52.344;16.858;2023-11-19T02:51:34;49.20;;;25.10;;
47155;SDS011;32908;52.344;16.858;2023-11-19T02:54:04;45.40;;;26.90;;
47155;SDS011;32908;52.344;16.858;2023-11-19T02:56:35;45.30;;;26.30;;
47155;SDS011;32908;52.344;16.858;2023-11-19T02:59:07;47.60;;;26.30;;
47155;SDS011;32908;52.344;16.858;2023-11-19T03:01:46;48.10;;;26.40;;
47155;SDS011;32908;52.344;16.858;2023-11-19T03:04:17;47.60;;;26.40;;
47155;SDS011;32908;52.344;16.858;2023-11-19T03:06:50;50.70;;;27.40;;
47155;SDS011;32908;52.344;16.858;2023-11-19T03:09:21;45.90;;;26.40;;
47155;SDS011;32908;52.344;16.858;2023-11-19T03:11:52;48.90;;;26.40;;
47155;SDS011;32908;52.344;16.858;2023-11-19T03:14:22;47.50;;;25.40;;
47155;SDS011;32908;52.344;16.858;2023-11-19T03:16:52;50.30;;;27.30;;
47155;SDS011;32908;52.344;16.858;2023-11-19T03:19:23;48.20;;;26.30;;
47155;SDS011;32908;52.344;16.858;2023-11-19T03:21:54;48.80;;;26.00;;
47155;SDS011;32908;52.344;16.858;2023-11-19T03:24:24;46.80;;;25.60;;
47155;SDS011;32908;52.344;16.858;2023-11-19T03:26:55;50.70;;;25.90;;
47155;SDS011;32908;52.344;16.858;2023-11-19T03:29:25;49.80;;;25.40;;
47155;SDS011;32908;52.344;16.858;2023-11-19T03:31:56;46.10;;;26.00;;
47155;SDS011;32908;52.344;16.858;2023-11-19T03:34:26;45.10;;;25.80;;
47155;SDS011;32908;52.344;16.858;2023-11-19T03:36:57;46.20;;;27.00;;
47155;SDS011;32908;52.344;16.858;2023-11-19T03:39:27;51.20;;;28.00;;
47155;SDS011;32908;52.344;16.858;2023-11-19T03:41:58;47.30;;;25.70;;
47155;SDS011;32908;52.344;16.858;2023-11-19T03:44:28;46.80;;;25.10;;
47155;SDS011;32908;52.344;16.858;2023-11-19T03:46:59;43.80;;;26.50;;
47155;SDS011;32908;52.344;16.858;2023-11-19T03:49:29;47.00;;;25.00;;
47155;SDS011;32908;52.344;16.858;2023-11-19T03:52:00;44.60;;;25.80;;
47155;SDS011;32908;52.344;16.858;2023-11-19T03:54:30;46.70;;;24.80;;
47155;SDS011;32908;52.344;16.858;2023-11-19T03:57:01;47.70;;;25.80;;
47155;SDS011;32908;52.344;16.858;2023-11-19T03:59:31;43.10;;;25.10;;
47155;SDS011;32908;52.344;16.858;2023-11-19T04:02:02;44.80;;;25.10;;
47155;SDS011;32908;52.344;16.858;2023-11-19T04:04:32;44.20;;;24.50;;
47155;SDS011;32908;52.344;16.858;2023-11-19T04:07:03;44.70;;;24.30;;
47155;SDS011;32908;52.344;16.858;2023-11-19T04:09:33;45.90;;;24.80;;
47155;SDS011;32908;52.344;16.858;2023-11-19T04:12:05;44.20;;;24.80;;
47155;SDS011;32908;52.344;16.858;2023-11-19T04:14:37;43.20;;;25.20;;
47155;SDS011;32908;52.344;16.858;2023-11-19T04:17:08;44.00;;;24.30;;
47155;SDS011;32908;52.344;16.858;2023-11-19T04:19:38;42.00;;;23.60;;
47155;SDS011;32908;52.344;16.858;2023-11-19T04:22:09;45.40;;;25.40;;
47155;SDS011;32908;52.344;16.858;2023-11-19T04:24:39;43.20;;;24.80;;
47155;SDS011;32908;52.344;16.858;2023-11-19T04:27:11;42.80;;;23.70;;
47155;SDS011;32908;52.344;16.858;2023-11-19T04:29:42;38.40;;;22.80;;
47155;SDS011;32908;52.344;16.858;2023-11-19T04:32:13;45.90;;;24.20;;
47155;SDS011;32908;52.344;16.858;2023-11-19T04:34:44;40.60;;;23.40;;
47155;SDS011;32908;52.344;16.858;2023-11-19T04:37:14;38.90;;;23.30;;
47155;SDS011;32908;52.344;16.858;2023-11-19T04:39:45;41.50;;;23.90;;
47155;SDS011;32908;52.344;16.858;2023-11-19T04:42:15;39.40;;;23.90;;
47155;SDS011;32908;52.344;16.858;2023-11-19T04:44:46;42.70;;;23.10;;
47155;SDS011;32908;52.344;16.858;2023-11-19T04:47:16;43.40;;;23.10;;
47155;SDS011;32908;52.344;16.858;2023-11-19T04:49:47;40.50;;;22.80;;
47155;SDS011;32908;52.344;16.858;2023-11-19T04:52:17;41.00;;;22.40;;
47155;SDS011;32908;52.344;16.858;2023-11-19T04:54:47;40.70;;;22.10;;
47155;SDS011;32908;52.344;16.858;2023-11-19T04:57:18;40.50;;;21.40;;
47155;SDS011;32908;52.344;16.858;2023-11-19T04:59:48;38.00;;;21.00;;
47155;SDS011;32908;52.344;16.858;2023-11-19T05:02:19;40.50;;;22.50;;
47155;SDS011;32908;52.344;16.858;2023-11-19T05:04:49;38.30;;;21.70;;
47155;SDS011;32908;52.344;16.858;2023-11-19T05:07:19;36.20;;;21.40;;
47155;SDS011;32908;52.344;16.858;2023-11-19T05:09:50;36.10;;;19.70;;
47155;SDS011;32908;52.344;16.858;2023-11-19T05:12:20;37.40;;;20.80;;
47155;SDS011;32908;52.344;16.858;2023-11-19T05:14:51;35.00;;;20.60;;
47155;SDS011;32908;52.344;16.858;2023-11-19T05:17:22;39.80;;;20.00;;
47155;SDS011;32908;52.344;16.858;2023-11-19T05:19:52;36.70;;;20.30;;
47155;SDS011;32908;52.344;16.858;2023-11-19T05:22:22;36.50;;;19.30;;
47155;SDS011;32908;52.344;16.858;2023-11-19T05:24:53;35.60;;;20.90;;
47155;SDS011;32908;52.344;16.858;2023-11-19T05:27:24;36.20;;;20.50;;
47155;SDS011;32908;52.344;16.858;2023-11-19T05:29:54;37.80;;;20.00;;
47155;SDS011;32908;52.344;16.858;2023-11-19T05:32:25;35.40;;;20.50;;
47155;SDS011;32908;52.344;16.858;2023-11-19T05:34:55;36.80;;;18.80;;
47155;SDS011;32908;52.344;16.858;2023-11-19T05:37:25;36.30;;;19.00;;
47155;SDS011;32908;52.344;16.858;2023-11-19T05:39:56;33.60;;;19.60;;
47155;SDS011;32908;52.344;16.858;2023-11-19T05:42:27;33.00;;;19.10;;
47155;SDS011;32908;52.344;16.858;2023-11-19T05:44:58;31.20;;;18.90;;
47155;SDS011;32908;52.344;16.858;2023-11-19T05:47:28;32.60;;;18.80;;
47155;SDS011;32908;52.344;16.858;2023-11-19T05:49:59;36.20;;;20.80;;
47155;SDS011;32908;52.344;16.858;2023-11-19T05:52:29;32.80;;;18.00;;
47155;SDS011;32908;52.344;16.858;2023-11-19T05:55:01;37.00;;;20.60;;
47155;SDS011;32908;52.344;16.858;2023-11-19T05:57:36;32.80;;;19.40;;
47155;SDS011;32908;52.344;16.858;2023-11-19T06:00:08;34.00;;;19.50;;
47155;SDS011;32908;52.344;16.858;2023-11-19T06:02:40;33.70;;;19.00;;
47155;SDS011;32908;52.344;16.858;2023-11-19T06:05:11;31.10;;;17.80;;
47155;SDS011;32908;52.344;16.858;2023-11-19T06:07:41;35.10;;;19.30;;
47155;SDS011;32908;52.344;16.858;2023-11-19T06:10:11;30.60;;;18.20;;
47155;SDS011;32908;52.344;16.858;2023-11-19T06:12:44;28.40;;;17.20;;
47155;SDS011;32908;52.344;16.858;2023-11-19T06:15:15;28.80;;;17.60;;
47155;SDS011;32908;52.344;16.858;2023-11-19T06:17:45;28.80;;;16.70;;
47155;SDS011;32908;52.344;16.858;2023-11-19T06:20:16;27.30;;;17.30;;
47155;SDS011;32908;52.344;16.858;2023-11-19T06:22:47;29.40;;;16.60;;
47155;SDS011;32908;52.344;16.858;2023-11-19T06:25:17;28.10;;;16.20;;
47155;SDS011;32908;52.344;16.858;2023-11-19T06:27:48;32.70;;;18.30;;
47155;SDS011;32908;52.344;16.858;2023-11-19T06:30:18;30.60;;;17.40;;
47155;SDS011;32908;52.344;16.858;2023-11-19T06:32:49;29.40;;;16.70;;
47155;SDS011;32908;52.344;16.858;2023-11-19T06:35:19;27.40;;;16.20;;
47155;SDS011;32908;52.344;16.858;2023-11-19T06:37:50;27.70;;;16.20;;
47155;SDS011;32908;52.344;16.858;2023-11-19T06:40:20;28.00;;;16.50;;
47155;SDS011;32908;52.344;16.858;2023-11-19T06:42:51;29.30;;;17.10;;
47155;SDS011;32908;52.344;16.858;2023-11-19T06:45:21;27.40;;;16.10;;
47155;SDS011;32908;52.344;16.858;2023-11-19T06:47:52;28.70;;;16.10;;
47155;SDS011;32908;52.344;16.858;2023-11-19T06:50:22;26.20;;;15.70;;
47155;SDS011;32908;52.344;16.858;2023-11-19T06:52:53;26.50;;;15.50;;
47155;SDS011;32908;52.344;16.858;2023-11-19T06:55:23;26.20;;;15.70;;
47155;SDS011;32908;52.344;16.858;2023-11-19T06:57:54;28.50;;;15.70;;
47155;SDS011;32908;52.344;16.858;2023-11-19T07:00:24;27.80;;;16.20;;
47155;SDS011;32908;52.344;16.858;2023-11-19T07:02:55;26.60;;;16.40;;
47155;SDS011;32908;52.344;16.858;2023-11-19T07:05:25;27.50;;;16.50;;
47155;SDS011;32908;52.344;16.858;2023-11-19T07:07:56;25.80;;;15.90;;
47155;SDS011;32908;52.344;16.858;2023-11-19T07:10:26;26.90;;;16.90;;
47155;SDS011;32908;52.344;16.858;2023-11-19T07:12:57;27.30;;;16.60;;
47155;SDS011;32908;52.344;16.858;2023-11-19T07:15:28;26.00;;;15.20;;
47155;SDS011;32908;52.344;16.858;2023-11-19T07:17:58;26.70;;;15.50;;
47155;SDS011;32908;52.344;16.858;2023-11-19T07:20:28;26.40;;;15.30;;
47155;SDS011;32908;52.344;16.858;2023-11-19T07:23:00;26.80;;;15.90;;
47155;SDS011;32908;52.344;16.858;2023-11-19T07:25:31;27.70;;;15.00;;
47155;SDS011;32908;52.344;16.858;2023-11-19T07:28:02;28.40;;;16.30;;
47155;SDS011;32908;52.344;16.858;2023-11-19T07:30:33;27.40;;;15.00;;
47155;SDS011;32908;52.344;16.858;2023-11-19T07:33:03;27.20;;;15.50;;
47155;SDS011;32908;52.344;16.858;2023-11-19T07:35:34;25.40;;;15.30;;
47155;SDS011;32908;52.344;16.858;2023-11-19T07:38:04;28.10;;;16.70;;
47155;SDS011;32908;52.344;16.858;2023-11-19T07:40:35;24.70;;;15.30;;
47155;SDS011;32908;52.344;16.858;2023-11-19T07:43:05;26.60;;;16.40;;
47155;SDS011;32908;52.344;16.858;2023-11-19T07:45:35;28.70;;;16.00;;
47155;SDS011;32908;52.344;16.858;2023-11-19T07:48:06;24.50;;;14.80;;
47155;SDS011;32908;52.344;16.858;2023-11-19T07:50:36;32.50;;;15.60;;
47155;SDS011;32908;52.344;16.858;2023-11-19T07:53:08;26.80;;;15.30;;
47155;SDS011;32908;52.344;16.858;2023-11-19T07:55:40;28.20;;;16.20;;
47155;SDS011;32908;52.344;16.858;2023-11-19T07:58:11;25.70;;;15.60;;
47155;SDS011;32908;52.344;16.858;2023-11-19T08:00:42;25.00;;;15.60;;
47155;SDS011;32908;52.344;16.858;2023-11-19T08:03:12;20.60;;;13.50;;
47155;SDS011;32908;52.344;16.858;2023-11-19T08:05:42;26.40;;;15.20;;
47155;SDS011;32908;52.344;16.858;2023-11-19T08:08:13;26.30;;;15.00;;
47155;SDS011;32908;52.344;16.858;2023-11-19T08:10:44;25.60;;;14.90;;
47155;SDS011;32908;52.344;16.858;2023-11-19T08:13:15;27.30;;;14.90;;
47155;SDS011;32908;52.344;16.858;2023-11-19T08:15:45;25.60;;;14.70;;
47155;SDS011;32908;52.344;16.858;2023-11-19T08:18:16;24.70;;;14.00;;
47155;SDS011;32908;52.344;16.858;2023-11-19T08:20:46;25.60;;;15.10;;
47155;SDS011;32908;52.344;16.858;2023-11-19T08:23:20;23.60;;;14.80;;
47155;SDS011;32908;52.344;16.858;2023-11-19T08:25:53;24.40;;;14.40;;
47155;SDS011;32908;52.344;16.858;2023-11-19T08:28:23;26.30;;;15.10;;
47155;SDS011;32908;52.344;16.858;2023-11-19T08:30:53;23.30;;;14.10;;
47155;SDS011;32908;52.344;16.858;2023-11-19T08:33:24;26.20;;;15.10;;
47155;SDS011;32908;52.344;16.858;2023-11-19T08:35:54;22.60;;;14.30;;
47155;SDS011;32908;52.344;16.858;2023-11-19T08:38:26;25.50;;;15.60;;
47155;SDS011;32908;52.344;16.858;2023-11-19T08:40:56;24.70;;;15.50;;
47155;SDS011;32908;52.344;16.858;2023-11-19T08:43:27;25.70;;;15.20;;
47155;SDS011;32908;52.344;16.858;2023-11-19T08:45:59;23.30;;;14.00;;
47155;SDS011;32908;52.344;16.858;2023-11-19T08:48:29;24.50;;;14.60;;
47155;SDS011;32908;52.344;16.858;2023-11-19T08:50:59;26.40;;;16.00;;
47155;SDS011;32908;52.344;16.858;2023-11-19T08:53:30;26.50;;;15.90;;
47155;SDS011;32908;52.344;16.858;2023-11-19T08:56:00;28.40;;;16.90;;
47155;SDS011;32908;52.344;16.858;2023-11-19T08:58:31;27.00;;;16.70;;
47155;SDS011;32908;52.344;16.858;2023-11-19T09:01:01;25.40;;;15.80;;
47155;SDS011;32908;52.344;16.858;2023-11-19T09:03:33;25.50;;;16.00;;
47155;SDS011;32908;52.344;16.858;2023-11-19T09:06:04;26.90;;;16.80;;
47155;SDS011;32908;52.344;16.858;2023-11-19T09:08:35;26.90;;;15.80;;
47155;SDS011;32908;52.344;16.858;2023-11-19T09:11:08;26.00;;;16.60;;
47155;SDS011;32908;52.344;16.858;2023-11-19T09:13:39;29.70;;;17.20;;
47155;SDS011;32908;52.344;16.858;2023-11-19T09:16:09;24.90;;;15.40;;
47155;SDS011;32908;52.344;16.858;2023-11-19T09:18:41;27.90;;;16.70;;
47155;SDS011;32908;52.344;16.858;2023-11-19T09:21:11;27.20;;;17.10;;
47155;SDS011;32908;52.344;16.858;2023-11-19T09:23:42;28.60;;;17.00;;
47155;SDS011;32908;52.344;16.858;2023-11-19T09:26:14;28.40;;;16.80;;
47155;SDS011;32908;52.344;16.858;2023-11-19T09:28:45;30.60;;;17.00;;
47155;SDS011;32908;52.344;16.858;2023-11-19T09:31:15;33.50;;;18.40;;
47155;SDS011;32908;52.344;16.858;2023-11-19T09:33:46;31.70;;;17.60;;
47155;SDS011;32908;52.344;16.858;2023-11-19T09:36:16;29.30;;;17.60;;
47155;SDS011;32908;52.344;16.858;2023-11-19T09:38:47;35.30;;;19.10;;
47155;SDS011;32908;52.344;16.858;2023-11-19T09:41:17;35.50;;;20.00;;
47155;SDS011;32908;52.344;16.858;2023-11-19T09:43:47;35.70;;;20.00;;
47155;SDS011;32908;52.344;16.858;2023-11-19T09:46:18;33.60;;;19.30;;
47155;SDS011;32908;52.344;16.858;2023-11-19T09:48:49;31.50;;;18.80;;
47155;SDS011;32908;52.344;16.858;2023-11-19T09:51:22;33.00;;;18.70;;
47155;SDS011;32908;52.344;16.858;2023-11-19T09:53:53;35.20;;;20.50;;
47155;SDS011;32908;52.344;16.858;2023-11-19T09:56:23;32.10;;;19.60;;
47155;SDS011;32908;52.344;16.858;2023-11-19T09:58:54;31.60;;;19.10;;
47155;SDS011;32908;52.344;16.858;2023-11-19T10:01:24;35.90;;;21.60;;
47155;SDS011;32908;52.344;16.858;2023-11-19T10:03:55;35.80;;;22.10;;
47155;SDS011;32908;52.344;16.858;2023-11-19T10:06:26;38.00;;;23.10;;
47155;SDS011;32908;52.344;16.858;2023-11-19T10:08:57;36.10;;;23.00;;
47155;SDS011;32908;52.344;16.858;2023-11-19T10:11:27;38.60;;;24.40;;
47155;SDS011;32908;52.344;16.858;2023-11-19T10:13:58;37.30;;;23.60;;
47155;SDS011;32908;52.344;16.858;2023-11-19T10:16:29;38.30;;;23.60;;
47155;SDS011;32908;52.344;16.858;2023-11-19T10:19:00;36.70;;;23.80;;
47155;SDS011;32908;52.344;16.858;2023-11-19T10:21:33;38.20;;;23.70;;
47155;SDS011;32908;52.344;16.858;2023-11-19T10:24:04;40.00;;;24.20;;
47155;SDS011;32908;52.344;16.858;2023-11-19T10:26:35;39.30;;;23.40;;
47155;SDS011;32908;52.344;16.858;2023-11-19T10:29:06;37.60;;;22.80;;
47155;SDS011;32908;52.344;16.858;2023-11-19T10:31:36;36.70;;;22.20;;
47155;SDS011;32908;52.344;16.858;2023-11-19T10:34:10;39.40;;;21.90;;
47155;SDS011;32908;52.344;16.858;2023-11-19T10:36:54;37.50;;;22.20;;
47155;SDS011;32908;52.344;16.858;2023-11-19T10:39:25;41.80;;;24.00;;
47155;SDS011;32908;52.344;16.858;2023-11-19T10:42:17;51.00;;;25.80;;
47155;SDS011;32908;52.344;16.858;2023-11-19T10:44:47;56.40;;;25.80;;
47155;SDS011;32908;52.344;16.858;2023-11-19T10:47:19;62.10;;;28.80;;
47155;SDS011;32908;52.344;16.858;2023-11-19T10:49:50;60.80;;;28.70;;
47155;SDS011;32908;52.344;16.858;2023-11-19T10:52:21;57.30;;;28.60;;
47155;SDS011;32908;52.344;16.858;2023-11-19T10:54:51;54.90;;;28.50;;
47155;SDS011;32908;52.344;16.858;2023-11-19T10:57:24;55.00;;;28.20;;
47155;SDS011;32908;52.344;16.858;2023-11-19T11:00:01;55.10;;;28.10;;
47155;SDS011;32908;52.344;16.858;2023-11-19T11:02:39;56.60;;;27.80;;
47155;SDS011;32908;52.344;16.858;2023-11-19T11:05:10;52.00;;;26.80;;
47155;SDS011;32908;52.344;16.858;2023-11-19T11:07:42;53.30;;;27.00;;
47155;SDS011;32908;52.344;16.858;2023-11-19T11:10:14;48.70;;;26.60;;
47155;SDS011;32908;52.344;16.858;2023-11-19T11:12:49;49.70;;;25.90;;
47155;SDS011;32908;52.344;16.858;2023-11-19T11:15:25;43.50;;;24.80;;
47155;SDS011;32908;52.344;16.858;2023-11-19T11:17:57;46.50;;;25.40;;
47155;SDS011;32908;52.344;16.858;2023-11-19T11:20:31;46.10;;;24.20;;
47155;SDS011;32908;52.344;16.858;2023-11-19T11:23:16;44.60;;;24.50;;
47155;SDS011;32908;52.344;16.858;2023-11-19T11:26:00;46.00;;;23.10;;
47155;SDS011;32908;52.344;16.858;2023-11-19T11:28:40;45.60;;;23.60;;
47155;SDS011;32908;52.344;16.858;2023-11-19T11:31:19;47.80;;;24.70;;
47155;SDS011;32908;52.344;16.858;2023-11-19T11:34:05;52.70;;;26.40;;
47155;SDS011;32908;52.344;16.858;2023-11-19T11:36:44;47.20;;;25.60;;
47155;SDS011;32908;52.344;16.858;2023-11-19T11:39:18;47.90;;;25.20;;
47155;SDS011;32908;52.344;16.858;2023-11-19T11:45:00;40.30;;;22.80;;
47155;SDS011;32908;52.344;16.858;2023-11-19T11:50:32;43.20;;;23.30;;
47155;SDS011;32908;52.344;16.858;2023-11-19T11:53:19;41.00;;;22.60;;
47155;SDS011;32908;52.344;16.858;2023-11-19T11:55:57;42.70;;;21.80;;
47155;SDS011;32908;52.344;16.858;2023-11-19T11:58:30;36.20;;;21.30;;
47155;SDS011;32908;52.344;16.858;2023-11-19T12:01:02;42.20;;;22.80;;
47155;SDS011;32908;52.344;16.858;2023-11-19T12:03:37;37.70;;;22.30;;
47155;SDS011;32908;52.344;16.858;2023-11-19T12:06:08;37.70;;;21.20;;
47155;SDS011;32908;52.344;16.858;2023-11-19T12:08:38;42.00;;;22.80;;
47155;SDS011;32908;52.344;16.858;2023-11-19T12:11:09;42.20;;;23.00;;
47155;SDS011;32908;52.344;16.858;2023-11-19T12:13:46;39.50;;;21.40;;
47155;SDS011;32908;52.344;16.858;2023-11-19T12:16:23;44.00;;;24.10;;
47155;SDS011;32908;52.344;16.858;2023-11-19T12:18:55;44.20;;;23.90;;
47155;SDS011;32908;52.344;16.858;2023-11-19T12:21:29;44.80;;;23.20;;
47155;SDS011;32908;52.344;16.858;2023-11-19T12:24:00;43.40;;;23.10;;
47155;SDS011;32908;52.344;16.858;2023-11-19T12:26:35;39.60;;;22.40;;
47155;SDS011;32908;52.344;16.858;2023-11-19T12:29:07;41.60;;;22.70;;
47155;SDS011;32908;52.344;16.858;2023-11-19T12:31:37;42.90;;;24.30;;
47155;SDS011;32908;52.344;16.858;2023-11-19T12:34:08;38.80;;;22.80;;
47155;SDS011;32908;52.344;16.858;2023-11-19T12:36:40;42.80;;;23.30;;
47155;SDS011;32908;52.344;16.858;2023-11-19T12:39:11;41.40;;;23.30;;
47155;SDS011;32908;52.344;16.858;2023-11-19T12:41:54;42.90;;;23.50;;
47155;SDS011;32908;52.344;16.858;2023-11-19T12:44:26;40.30;;;22.30;;
47155;SDS011;32908;52.344;16.858;2023-11-19T12:47:01;43.00;;;24.90;;
47155;SDS011;32908;52.344;16.858;2023-11-19T12:49:34;41.40;;;23.50;;
47155;SDS011;32908;52.344;16.858;2023-11-19T12:52:12;44.00;;;23.70;;
47155;SDS011;32908;52.344;16.858;2023-11-19T12:54:43;41.70;;;24.70;;
47155;SDS011;32908;52.344;16.858;2023-11-19T12:57:13;42.50;;;24.60;;
47155;SDS011;32908;52.344;16.858;2023-11-19T12:59:53;41.60;;;24.00;;
47155;SDS011;32908;52.344;16.858;2023-11-19T13:02:24;37.60;;;23.40;;
47155;SDS011;32908;52.344;16.858;2023-11-19T13:05:22;41.50;;;23.60;;
47155;SDS011;32908;52.344;16.858;2023-11-19T13:07:59;39.70;;;23.40;;
47155;SDS011;32908;52.344;16.858;2023-11-19T13:10:30;41.70;;;23.70;;
47155;SDS011;32908;52.344;16.858;2023-11-19T13:13:02;46.20;;;25.80;;
47155;SDS011;32908;52.344;16.858;2023-11-19T13:15:33;48.50;;;24.80;;
47155;SDS011;32908;52.344;16.858;2023-11-19T13:18:05;45.20;;;25.90;;
47155;SDS011;32908;52.344;16.858;2023-11-19T13:20:36;47.20;;;26.90;;
47155;SDS011;32908;52.344;16.858;2023-11-19T13:23:07;49.40;;;27.30;;
47155;SDS011;32908;52.344;16.858;2023-11-19T13:25:38;47.70;;;25.20;;
47155;SDS011;32908;52.344;16.858;2023-11-19T13:28:08;48.40;;;24.90;;
47155;SDS011;32908;52.344;16.858;2023-11-19T13:30:38;47.20;;;25.70;;
47155;SDS011;32908;52.344;16.858;2023-11-19T13:33:09;43.10;;;24.40;;
47155;SDS011;32908;52.344;16.858;2023-11-19T13:35:40;48.70;;;25.90;;
47155;SDS011;32908;52.344;16.858;2023-11-19T13:38:11;43.60;;;24.80;;
47155;SDS011;32908;52.344;16.858;2023-11-19T13:40:42;50.40;;;27.30;;
47155;SDS011;32908;52.344;16.858;2023-11-19T13:43:12;54.80;;;28.20;;
47155;SDS011;32908;52.344;16.858;2023-11-19T13:45:43;60.20;;;32.70;;
47155;SDS011;32908;52.344;16.858;2023-11-19T13:48:14;59.60;;;32.80;;
47155;SDS011;32908;52.344;16.858;2023-11-19T13:50:44;64.80;;;34.80;;
47155;SDS011;32908;52.344;16.858;2023-11-19T13:53:14;62.20;;;32.90;;
47155;SDS011;32908;52.344;16.858;2023-11-19T13:55:45;57.60;;;32.80;;
47155;SDS011;32908;52.344;16.858;2023-11-19T13:58:16;59.40;;;32.40;;
47155;SDS011;32908;52.344;16.858;2023-11-19T14:00:46;54.70;;;31.10;;
47155;SDS011;32908;52.344;16.858;2023-11-19T14:03:16;53.70;;;29.10;;
47155;SDS011;32908;52.344;16.858;2023-11-19T14:05:47;54.30;;;31.10;;
47155;SDS011;32908;52.344;16.858;2023-11-19T14:08:20;62.40;;;32.10;;
47155;SDS011;32908;52.344;16.858;2023-11-19T14:10:50;63.40;;;32.70;;
47155;SDS011;32908;52.344;16.858;2023-11-19T14:13:22;64.90;;;33.80;;
47155;SDS011;32908;52.344;16.858;2023-11-19T14:15:53;66.20;;;33.00;;
47155;SDS011;32908;52.344;16.858;2023-11-19T14:18:23;65.90;;;34.70;;
47155;SDS011;32908;52.344;16.858;2023-11-19T14:20:54;63.60;;;33.90;;
47155;SDS011;32908;52.344;16.858;2023-11-19T14:23:24;64.70;;;32.50;;
47155;SDS011;32908;52.344;16.858;2023-11-19T14:25:55;63.60;;;33.20;;
47155;SDS011;32908;52.344;16.858;2023-11-19T14:28:25;70.60;;;36.00;;
47155;SDS011;32908;52.344;16.858;2023-11-19T14:30:56;67.60;;;33.90;;
47155;SDS011;32908;52.344;16.858;2023-11-19T14:33:26;70.10;;;37.30;;
47155;SDS011;32908;52.344;16.858;2023-11-19T14:35:56;70.30;;;38.10;;
47155;SDS011;32908;52.344;16.858;2023-11-19T14:38:27;73.80;;;38.00;;